Time;durP1;ratioP1;P1;durP2;ratioP2;P2;SDS_P1;SDS_P2;PMS_P1;PMS_P2;Temp;Humidity;BMP_temperature;BMP_pressure;BME280_temperature;BME280_humidity;BME280_pressure;Samples;Min_cycle;Max_cycle;Signal;HPM_P1;HPM_P2
2022/04/05 00:02:15;;;;;;;13.80;2.25;;;;;;;5.32;100.00;100339.44;5051058;28;20158;-70
2022/04/05 00:04:41;;;;;;;12.30;2.65;;;;;;;5.31;100.00;100343.81;5049894;28;20075;-71
2022/04/05 00:07:07;;;;;;;8.75;2.30;;;;;;;5.31;100.00;100343.81;5050755;28;20175;-70
2022/04/05 00:09:32;;;;;;;9.82;2.40;;;;;;;5.30;100.00;100342.09;5051606;28;20075;-70
2022/04/05 00:11:58;;;;;;;12.02;2.58;;;;;;;5.30;100.00;100358.69;5049985;28;20040;-70
2022/04/05 00:14:23;;;;;;;11.82;2.58;;;;;;;5.30;100.00;100363.09;5032365;28;20028;-70
2022/04/05 00:16:49;;;;;;;9.75;2.25;;;;;;;5.29;100.00;100361.38;5032903;28;20032;-70
2022/04/05 00:19:15;;;;;;;6.80;2.40;;;;;;;5.28;100.00;100360.50;5050307;28;20040;-70
2022/04/05 00:21:40;;;;;;;9.10;2.35;;;;;;;5.26;100.00;100357.09;5051694;28;20025;-70
2022/04/05 00:24:06;;;;;;;12.88;2.20;;;;;;;5.26;100.00;100364.97;5049228;28;20082;-70
2022/04/05 00:26:32;;;;;;;14.63;2.40;;;;;;;5.26;100.00;100357.09;5050273;28;20082;-71
2022/04/05 00:28:58;;;;;;;16.08;2.50;;;;;;;5.24;100.00;100358.88;5032108;28;20604;-71
2022/04/05 00:31:23;;;;;;;9.60;2.88;;;;;;;5.26;100.00;100357.09;5049848;28;21662;-71
2022/04/05 00:33:49;;;;;;;9.63;3.03;;;;;;;5.25;100.00;100363.25;5050151;28;20250;-71
2022/04/05 00:36:14;;;;;;;20.10;3.03;;;;;;;5.24;100.00;100372.00;5031943;28;20028;-70
2022/04/05 00:38:42;;;;;;;13.18;2.83;;;;;;;5.24;100.00;100366.75;5049663;28;20092;-70
2022/04/05 00:41:08;;;;;;;9.68;2.38;;;;;;;5.24;100.00;100372.00;5031997;28;20032;-70
2022/04/05 00:43:34;;;;;;;15.30;2.70;;;;;;;5.24;100.00;100376.41;5048927;28;20079;-70
2022/04/05 00:45:59;;;;;;;9.05;2.30;;;;;;;5.23;100.00;100367.66;5031738;28;20052;-69
2022/04/05 00:48:55;;;;;;;12.88;2.95;;;;;;;5.23;100.00;100372.91;5049339;28;20075;-70
2022/04/05 00:51:22;;;;;;;11.70;2.40;;;;;;;5.22;100.00;100371.19;5049053;28;20087;-70
2022/04/05 00:53:51;;;;;;;11.23;2.53;;;;;;;5.22;100.00;100365.94;5031936;28;20583;-70
2022/04/05 00:56:18;;;;;;;19.05;2.50;;;;;;;5.21;100.00;100366.00;5031640;28;20433;-70
2022/04/05 00:58:48;;;;;;;13.18;2.65;;;;;;;5.21;100.00;100356.34;5043657;28;20828;-69
2022/04/05 01:01:16;;;;;;;13.77;2.22;;;;;;;5.20;100.00;100354.66;5030415;28;20033;-70
2022/04/05 01:03:49;;;;;;;8.52;2.20;;;;;;;5.20;100.00;100367.78;5049172;28;20626;-70
2022/04/05 01:06:24;;;;;;;13.00;2.30;;;;;;;5.19;100.00;100371.31;5050041;28;20044;-70
2022/04/05 01:08:50;;;;;;;9.52;2.25;;;;;;;5.19;100.00;100381.81;5048725;28;20036;-70
2022/04/05 01:11:16;;;;;;;11.45;2.90;;;;;;;5.20;100.00;100378.28;5031254;28;20024;-70
2022/04/05 01:13:43;;;;;;;9.95;2.60;;;;;;;5.19;100.00;100379.19;5048348;28;20081;-70
2022/04/05 01:16:10;;;;;;;10.48;2.50;;;;;;;5.21;100.00;100372.09;5031600;28;20102;-69
2022/04/05 01:18:36;;;;;;;13.73;2.60;;;;;;;5.22;100.00;100376.44;5050809;28;20071;-69
2022/04/05 01:21:02;;;;;;;9.35;2.30;;;;;;;5.23;100.00;100387.81;5049647;28;20139;-69
2022/04/05 01:23:27;;;;;;;10.23;2.92;;;;;;;5.23;100.00;100380.78;5048674;28;20671;-69
2022/04/05 01:25:53;;;;;;;12.25;3.55;;;;;;;5.26;100.00;100385.97;5049398;28;20040;-70
2022/04/05 01:28:21;;;;;;;16.15;4.03;;;;;;;5.28;100.00;100392.00;5047659;28;20678;-70
2022/04/05 01:30:47;;;;;;;18.15;4.30;;;;;;;5.29;100.00;100382.38;5030641;28;20732;-70
2022/04/05 01:33:13;;;;;;;16.17;4.30;;;;;;;5.32;100.00;100384.91;5030650;28;20039;-70
2022/04/05 01:35:39;;;;;;;19.20;5.30;;;;;;;5.35;100.00;100391.81;5032279;28;20526;-70
2022/04/05 01:38:07;;;;;;;17.38;4.80;;;;;;;5.37;100.00;100384.75;5050321;28;20029;-70
2022/04/05 01:40:32;;;;;;;21.98;4.25;;;;;;;5.37;100.00;100385.63;5050287;28;20085;-70
2022/04/05 01:42:58;;;;;;;14.70;3.67;;;;;;;5.40;100.00;100384.66;5034092;28;20044;-71
2022/04/05 01:45:24;;;;;;;14.00;4.10;;;;;;;5.41;100.00;100378.50;5050520;28;20054;-70
2022/04/05 01:47:49;;;;;;;6.68;3.03;;;;;;;5.42;100.00;100370.59;5030708;28;20040;-70
2022/04/05 01:50:15;;;;;;;20.98;5.10;;;;;;;5.43;100.00;100381.94;5029530;28;20387;-69
2022/04/05 01:52:41;;;;;;;19.98;3.90;;;;;;;5.43;100.00;100388.06;5031693;28;20398;-69
2022/04/05 01:55:07;;;;;;;11.93;3.15;;;;;;;5.43;100.00;100379.31;5030703;28;20144;-70
2022/04/05 01:57:33;;;;;;;15.75;3.38;;;;;;;5.44;100.00;100384.53;5029465;28;20026;-69
2022/04/05 01:59:59;;;;;;;10.80;2.70;;;;;;;5.45;100.00;100385.38;5030302;28;21353;-70
2022/04/05 02:02:24;;;;;;;14.45;3.22;;;;;;;5.46;100.00;100376.59;5014297;28;20028;-69
2022/04/05 02:04:50;;;;;;;17.40;3.35;;;;;;;5.46;100.00;100379.22;5047581;28;20040;-69
2022/04/05 02:07:20;;;;;;;17.05;3.47;;;;;;;5.48;100.00;100381.78;5018730;28;20028;-69
2022/04/05 02:09:49;;;;;;;19.42;4.00;;;;;;;5.48;100.00;100382.66;5030566;28;20067;-69
2022/04/05 02:12:18;;;;;;;17.25;4.00;;;;;;;5.48;100.00;100377.41;5047472;28;20058;-69
2022/04/05 02:14:44;;;;;;;16.95;3.65;;;;;;;5.48;100.00;100382.66;5030958;28;20032;-70
2022/04/05 02:17:11;;;;;;;15.70;3.28;;;;;;;5.49;100.00;100380.91;5047947;28;20035;-69
2022/04/05 02:19:38;;;;;;;13.88;3.03;;;;;;;5.48;100.00;100380.03;5049037;28;20028;-69
2022/04/05 02:22:04;;;;;;;19.23;3.30;;;;;;;5.48;100.00;100372.16;5048120;28;20029;-68
2022/04/05 02:24:30;;;;;;;18.75;3.53;;;;;;;5.49;100.00;100373.88;5029443;28;20106;-69
2022/04/05 02:26:55;;;;;;;15.10;2.92;;;;;;;5.48;100.00;100385.28;5028451;28;20412;-69
2022/04/05 02:29:20;;;;;;;20.70;3.20;;;;;;;5.47;100.00;100380.94;5031365;28;20032;-69
2022/04/05 02:31:46;;;;;;;17.70;3.70;;;;;;;5.47;100.00;100380.06;5029832;28;20141;-69
2022/04/05 02:34:12;;;;;;;21.10;3.15;;;;;;;5.47;100.00;100380.06;5030842;28;20036;-69
2022/04/05 02:36:37;;;;;;;21.92;3.60;;;;;;;5.46;100.00;100376.59;5034533;28;20162;-69
2022/04/05 02:39:04;;;;;;;12.05;2.63;;;;;;;5.46;100.00;100387.09;5031785;28;20068;-69
2022/04/05 02:41:30;;;;;;;13.38;2.83;;;;;;;5.46;100.00;100386.25;5030056;28;20029;-69
2022/04/05 02:43:56;;;;;;;12.38;2.80;;;;;;;5.45;100.00;100393.25;5029218;28;20055;-70
2022/04/05 02:46:21;;;;;;;20.50;3.25;;;;;;;5.44;100.00;100381.03;5051858;28;20418;-69
2022/04/05 02:48:48;;;;;;;15.07;3.28;;;;;;;5.45;100.00;100395.88;5030522;28;20102;-69
2022/04/05 02:51:15;;;;;;;19.52;3.67;;;;;;;5.45;100.00;100393.25;5029989;28;20036;-70
2022/04/05 02:53:41;;;;;;;18.00;3.80;;;;;;;5.45;100.00;100388.00;5017884;28;20043;-70
2022/04/05 02:56:07;;;;;;;17.25;3.60;;;;;;;5.44;100.00;100396.78;5051845;28;20381;-70
2022/04/05 02:58:37;;;;;;;15.05;3.05;;;;;;;5.43;100.00;100390.69;5035273;28;20384;-70
2022/04/05 03:01:03;;;;;;;14.82;3.03;;;;;;;5.43;100.00;100395.94;5035639;28;20358;-70
2022/04/05 03:03:28;;;;;;;14.68;2.97;;;;;;;5.42;100.00;100391.59;5050322;28;20098;-71
2022/04/05 03:05:54;;;;;;;15.48;3.00;;;;;;;5.43;100.00;100395.94;5037005;28;20040;-70
2022/04/05 03:08:20;;;;;;;10.80;2.60;;;;;;;5.40;100.00;100395.19;5036030;28;20384;-70
2022/04/05 03:10:45;;;;;;;13.57;2.90;;;;;;;5.39;100.00;100399.56;5053133;28;20039;-71
2022/04/05 03:13:11;;;;;;;17.25;2.60;;;;;;;5.38;100.00;100386.47;5053749;28;20036;-70
2022/04/05 03:15:37;;;;;;;14.13;2.50;;;;;;;5.37;100.00;100395.25;5051851;28;20053;-70
2022/04/05 03:18:02;;;;;;;17.58;2.45;;;;;;;5.37;100.00;100404.00;5019123;28;20151;-70
2022/04/05 03:20:28;;;;;;;11.50;2.25;;;;;;;5.34;100.00;100398.00;5052341;28;20043;-70
2022/04/05 03:22:55;;;;;;;10.45;2.20;;;;;;;5.34;100.00;100408.50;5052213;28;20039;-70
2022/04/05 03:25:22;;;;;;;12.35;2.85;;;;;;;5.33;100.00;100404.16;5034821;28;20471;-70
2022/04/05 03:27:48;;;;;;;15.32;2.67;;;;;;;5.30;100.00;100400.69;5035360;28;20572;-70
2022/04/05 03:30:15;;;;;;;20.40;3.53;;;;;;;5.32;100.00;100410.31;5035099;28;20155;-70
2022/04/05 03:32:41;;;;;;;11.32;2.90;;;;;;;5.29;100.00;100406.00;5016222;28;20033;-70
2022/04/05 03:35:08;;;;;;;15.40;2.78;;;;;;;5.28;100.00;100407.75;5018380;28;20034;-70
2022/04/05 03:37:33;;;;;;;11.82;3.30;;;;;;;5.25;100.00;100405.25;5034275;28;20041;-70
2022/04/05 03:40:00;;;;;;;15.13;2.83;;;;;;;5.25;100.00;100407.00;5034810;28;20485;-71
2022/04/05 03:42:26;;;;;;;14.75;3.40;;;;;;;5.25;100.00;100407.00;5052360;28;20060;-71
2022/04/05 03:44:51;;;;;;;15.07;3.10;;;;;;;5.24;100.00;100405.28;5052196;28;20097;-70
2022/04/05 03:47:17;;;;;;;13.82;2.67;;;;;;;5.24;100.00;100405.28;5032998;28;20159;-70
2022/04/05 03:49:43;;;;;;;12.25;2.38;;;;;;;5.23;100.00;100399.16;5017971;28;20586;-70
2022/04/05 03:52:09;;;;;;;11.95;2.92;;;;;;;5.22;100.00;100402.69;5035428;28;20375;-70
2022/04/05 03:54:34;;;;;;;15.05;2.80;;;;;;;5.22;100.00;100407.94;5034034;28;20077;-70
2022/04/05 03:57:00;;;;;;;17.05;2.83;;;;;;;5.20;100.00;100401.88;5052880;28;20040;-70
2022/04/05 03:59:25;;;;;;;20.25;3.35;;;;;;;5.20;100.00;100399.28;5035896;28;20029;-70
2022/04/05 04:01:51;;;;;;;253.70;30.88;;;;;;;5.21;100.00;100395.72;5052555;28;20025;-70
2022/04/05 04:04:16;;;;;;;101.68;16.48;;;;;;;5.23;100.00;100393.06;5052171;28;20126;-70
2022/04/05 04:06:42;;;;;;;197.77;18.85;;;;;;;5.24;100.00;100400.03;5033556;28;20025;-70
2022/04/05 04:09:07;;;;;;;107.90;13.20;;;;;;;5.25;100.00;100402.63;5052060;28;20515;-70
2022/04/05 04:11:33;;;;;;;13.57;3.15;;;;;;;5.25;100.00;100402.63;5051135;28;20446;-70
2022/04/05 04:13:58;;;;;;;12.80;2.25;;;;;;;5.22;100.00;100402.69;5052629;28;20024;-70
2022/04/05 04:16:25;;;;;;;13.02;2.60;;;;;;;5.20;100.00;100399.28;5052330;28;20017;-70
2022/04/05 04:18:50;;;;;;;11.88;2.72;;;;;;;5.16;100.00;100400.25;5052352;28;20034;-70
2022/04/05 04:21:16;;;;;;;13.65;2.65;;;;;;;5.15;100.00;100395.91;5052303;28;20064;-70
2022/04/05 04:23:41;;;;;;;10.82;2.55;;;;;;;5.13;100.00;100389.88;5052309;28;20031;-70
2022/04/05 04:26:07;;;;;;;10.20;2.15;;;;;;;5.11;100.00;100389.91;5051669;28;20036;-69
2022/04/05 04:28:32;;;;;;;13.55;2.92;;;;;;;5.11;100.00;100389.03;5034131;28;21378;-70
2022/04/05 04:30:58;;;;;;;18.00;3.10;;;;;;;5.09;100.00;100385.59;5051582;28;20043;-69
2022/04/05 04:33:24;;;;;;;10.63;3.13;;;;;;;5.08;100.00;100392.63;5051930;28;20657;-69
2022/04/05 04:35:49;;;;;;;13.80;2.65;;;;;;;5.07;100.00;100387.41;5050908;28;20509;-70
2022/04/05 04:38:15;;;;;;;15.60;2.80;;;;;;;5.07;100.00;100390.03;5034510;28;20394;-70
2022/04/05 04:40:47;;;;;;;10.65;3.00;;;;;;;5.06;100.00;100396.19;5052636;28;20037;-70
2022/04/05 04:43:14;;;;;;;14.55;3.42;;;;;;;5.05;100.00;100394.47;5033882;28;20575;-70
2022/04/05 04:45:40;;;;;;;10.93;2.70;;;;;;;5.05;100.00;100391.88;5033962;28;20074;-70
2022/04/05 04:48:06;;;;;;;9.95;3.35;;;;;;;5.03;100.00;100391.91;5051633;28;20504;-69
2022/04/05 04:50:31;;;;;;;8.95;3.40;;;;;;;5.01;100.00;100394.56;5050476;28;20033;-69
2022/04/05 04:52:57;;;;;;;11.32;3.22;;;;;;;5.02;100.00;100398.91;5052460;28;20029;-69
2022/04/05 04:55:24;;;;;;;13.45;3.25;;;;;;;5.01;100.00;100396.34;5031874;28;20090;-69
2022/04/05 04:57:50;;;;;;;19.38;3.88;;;;;;;4.98;100.00;100392.03;5032542;28;20132;-70
2022/04/05 05:00:17;;;;;;;16.63;3.58;;;;;;;4.98;100.00;100396.41;5033756;28;20036;-70
2022/04/05 05:02:47;;;;;;;10.27;3.45;;;;;;;4.96;100.00;100399.06;5021146;28;20050;-70
2022/04/05 05:05:15;;;;;;;18.50;3.90;;;;;;;4.95;100.00;100393.91;5004513;28;20115;-70
2022/04/05 05:07:41;;;;;;;12.02;3.95;;;;;;;4.93;100.00;100398.31;5050102;28;20033;-69
2022/04/05 05:10:07;;;;;;;19.55;4.47;;;;;;;4.93;100.00;100400.94;5051586;28;20385;-69
2022/04/05 05:12:34;;;;;;;12.20;4.10;;;;;;;4.93;100.00;100401.81;5030758;28;20065;-69
2022/04/05 05:14:59;;;;;;;14.27;4.60;;;;;;;4.93;100.00;100407.03;5051094;28;20037;-70
2022/04/05 05:17:25;;;;;;;18.73;3.67;;;;;;;4.93;100.00;100400.94;5049086;28;20055;-70
2022/04/05 05:19:50;;;;;;;15.88;3.97;;;;;;;4.92;100.00;100402.72;5033685;28;20036;-70
2022/04/05 05:22:16;;;;;;;14.77;4.10;;;;;;;4.93;100.00;100398.31;5049956;28;20119;-69
2022/04/05 05:24:41;;;;;;;11.82;4.03;;;;;;;4.93;100.00;100400.94;5050563;28;20035;-70
2022/04/05 05:27:07;;;;;;;15.23;4.47;;;;;;;4.94;100.00;100397.41;5050951;28;20032;-70
2022/04/05 05:29:32;;;;;;;14.75;3.58;;;;;;;4.93;100.00;100401.81;5050284;28;20036;-69
2022/04/05 05:31:58;;;;;;;18.73;4.68;;;;;;;4.93;100.00;100407.03;5052108;28;20028;-69
2022/04/05 05:34:24;;;;;;;13.80;3.70;;;;;;;4.94;100.00;100403.50;5050270;28;20050;-69
2022/04/05 05:36:50;;;;;;;14.13;4.05;;;;;;;4.94;100.00;100408.75;5049228;28;20033;-70
2022/04/05 05:39:15;;;;;;;14.32;3.85;;;;;;;4.94;100.00;100402.63;5033023;28;20028;-70
2022/04/05 05:41:41;;;;;;;17.67;3.80;;;;;;;4.94;100.00;100408.75;5050538;28;20024;-71
2022/04/05 05:44:07;;;;;;;10.82;3.70;;;;;;;4.96;100.00;100408.72;5050516;28;20543;-71
2022/04/05 05:46:33;;;;;;;11.75;4.32;;;;;;;4.96;100.00;100406.94;5028910;28;20510;-81
2022/04/05 05:48:58;;;;;;;14.02;3.88;;;;;;;4.96;100.00;100406.09;5027304;28;20068;-71
2022/04/05 05:51:24;;;;;;;17.52;4.30;;;;;;;4.95;100.00;100405.22;5030645;28;20054;-70
2022/04/05 05:53:49;;;;;;;10.82;3.53;;;;;;;4.95;100.00;100407.84;5031399;28;20067;-71
2022/04/05 05:56:15;;;;;;;16.92;4.00;;;;;;;4.96;100.00;100409.56;5030342;28;20063;-71
2022/04/05 05:58:40;;;;;;;11.70;4.35;;;;;;;4.97;100.00;100408.66;5030586;28;20095;-71
2022/04/05 06:01:06;;;;;;;16.27;4.28;;;;;;;4.96;100.00;100404.31;5032854;28;20036;-70
2022/04/05 06:03:32;;;;;;;15.38;3.63;;;;;;;4.97;100.00;100406.03;5030792;28;20058;-71
2022/04/05 06:05:57;;;;;;;15.25;3.80;;;;;;;4.98;100.00;100410.41;5027978;28;20032;-70
2022/04/05 06:08:23;;;;;;;13.10;3.13;;;;;;;4.98;100.00;100409.53;5030620;28;20578;-70
2022/04/05 06:10:49;;;;;;;12.30;4.03;;;;;;;4.99;100.00;100414.75;5030162;28;20047;-70
2022/04/05 06:13:15;;;;;;;14.68;3.70;;;;;;;5.00;100.00;100405.09;5028970;28;20037;-70
2022/04/05 06:15:40;;;;;;;10.38;3.30;;;;;;;5.03;100.00;100410.25;5032991;28;20025;-70
2022/04/05 06:18:06;;;;;;;14.90;3.47;;;;;;;5.05;100.00;100410.22;5031937;28;20029;-69
2022/04/05 06:20:32;;;;;;;13.55;3.00;;;;;;;5.09;100.00;100411.84;5033565;28;20029;-69
2022/04/05 06:23:02;;;;;;;13.00;3.40;;;;;;;5.12;100.00;100406.50;5034597;28;20037;-69
2022/04/05 06:25:30;;;;;;;41.08;17.80;;;;;;;5.16;100.00;100409.00;5047182;28;20040;-68
2022/04/05 06:27:57;;;;;;;13.75;5.65;;;;;;;5.20;100.00;100409.75;5047789;28;20067;-69
2022/04/05 06:30:23;;;;;;;9.60;4.00;;;;;;;5.26;100.00;100412.22;5034104;28;20211;-69
2022/04/05 06:32:48;;;;;;;10.07;3.08;;;;;;;5.28;100.00;100413.00;5033151;28;20350;-68
2022/04/05 06:35:14;;;;;;;10.05;3.00;;;;;;;5.33;100.00;100417.28;5034055;28;20049;-69
2022/04/05 06:37:44;;;;;;;14.02;3.47;;;;;;;5.36;100.00;100411.91;5032299;28;20146;-70
2022/04/05 06:40:10;;;;;;;12.07;3.00;;;;;;;5.39;100.00;100412.69;5019920;28;20043;-70
2022/04/05 06:42:41;;;;;;;10.55;3.45;;;;;;;5.38;100.00;100412.72;5015957;28;20033;-70
2022/04/05 06:45:09;;;;;;;15.77;3.95;;;;;;;5.42;100.00;100414.34;5031463;28;20411;-70
2022/04/05 06:47:37;;;;;;;13.73;3.50;;;;;;;5.44;100.00;100423.91;5033613;28;20068;-70
2022/04/05 06:50:08;;;;;;;9.80;3.20;;;;;;;5.43;100.00;100411.69;5034509;28;20078;-69
2022/04/05 06:52:38;;;;;;;12.68;2.97;;;;;;;5.47;100.00;100422.97;5033789;28;20039;-70
2022/04/05 06:55:05;;;;;;;11.80;4.85;;;;;;;5.49;100.00;100422.91;5034973;28;20044;-69
2022/04/05 06:57:30;;;;;;;12.60;3.58;;;;;;;5.50;100.00;100428.09;5033088;28;20068;-70
2022/04/05 06:59:56;;;;;;;14.20;3.53;;;;;;;5.51;100.00;100421.94;5034622;28;20961;-71
2022/04/05 07:02:22;;;;;;;10.27;4.05;;;;;;;5.53;100.00;100416.66;5033499;28;20112;-70
2022/04/05 07:04:48;;;;;;;11.07;3.67;;;;;;;5.54;100.00;100423.63;5033433;28;21589;-70
2022/04/05 07:07:14;;;;;;;13.90;3.30;;;;;;;5.55;100.00;100428.81;5033028;28;20040;-69
2022/04/05 07:09:40;;;;;;;13.60;4.97;;;;;;;5.58;100.00;100433.13;5033832;28;20321;-70
2022/04/05 07:12:07;;;;;;;14.52;4.13;;;;;;;5.63;100.00;100432.97;5032579;28;20124;-70
2022/04/05 07:14:33;;;;;;;15.30;4.50;;;;;;;5.66;100.00;100430.28;5033068;28;20063;-70
2022/04/05 07:16:59;;;;;;;12.85;5.38;;;;;;;5.67;100.00;100432.81;5033789;28;20033;-70
2022/04/05 07:19:25;;;;;;;8.13;3.28;;;;;;;5.68;100.00;100431.06;5031704;28;20581;-70
2022/04/05 07:21:50;;;;;;;10.05;3.10;;;;;;;5.70;100.00;100424.00;5034468;28;20026;-71
2022/04/05 07:24:16;;;;;;;9.63;2.97;;;;;;;5.71;100.00;100420.44;5032723;28;20301;-70
2022/04/05 07:26:42;;;;;;;12.35;2.80;;;;;;;5.73;100.00;100426.53;5034012;28;20100;-70
2022/04/05 07:29:08;;;;;;;9.50;2.63;;;;;;;5.75;100.00;100421.22;5032900;28;20033;-70
2022/04/05 07:31:33;;;;;;;8.25;2.47;;;;;;;5.79;100.00;100421.09;5033088;28;20032;-71
2022/04/05 07:33:59;;;;;;;9.30;2.92;;;;;;;5.83;100.00;100412.19;5032997;28;20056;-70
2022/04/05 07:36:25;;;;;;;15.32;3.38;;;;;;;5.86;100.00;100408.59;5033154;28;20041;-70
2022/04/05 07:38:52;;;;;;;14.55;3.10;;;;;;;5.89;100.00;100413.75;5033218;28;20037;-70
2022/04/05 07:41:19;;;;;;;9.65;4.85;;;;;;;5.92;100.00;100411.03;5032473;28;20492;-70
2022/04/05 07:43:44;;;;;;;9.32;3.70;;;;;;;5.96;100.00;100409.16;5033844;28;20036;-71
2022/04/05 07:46:10;;;;;;;13.10;4.55;;;;;;;5.97;100.00;100408.25;5048548;28;20439;-71
2022/04/05 07:48:36;;;;;;;10.18;3.05;;;;;;;5.98;100.00;100409.97;5034104;28;20135;-71
2022/04/05 07:51:01;;;;;;;10.88;5.07;;;;;;;5.98;100.00;100407.31;5049699;28;20075;-70
2022/04/05 07:53:27;;;;;;;11.70;6.70;;;;;;;6.02;100.00;100402.81;5054424;28;20530;-70
2022/04/05 07:55:54;;;;;;;18.75;8.52;;;;;;;6.04;100.00;100406.31;5034284;28;20025;-70
2022/04/05 07:58:20;;;;;;;7.18;2.42;;;;;;;6.07;100.00;100412.31;5034954;28;20029;-70
2022/04/05 08:00:46;;;;;;;7.40;2.50;;;;;;;6.07;100.00;100409.69;5052716;28;20269;-71
2022/04/05 08:03:12;;;;;;;9.20;2.28;;;;;;;6.07;100.00;100407.06;5053139;28;20036;-71
2022/04/05 08:05:40;;;;;;;7.68;2.53;;;;;;;6.09;100.00;100421.00;5034054;28;20033;-71
2022/04/05 08:08:05;;;;;;;6.82;2.50;;;;;;;6.15;100.00;100416.47;5032782;28;20569;-71
2022/04/05 08:10:31;;;;;;;6.85;2.83;;;;;;;6.18;100.00;100404.06;5052276;28;20053;-71
2022/04/05 08:12:57;;;;;;;6.43;2.47;;;;;;;6.19;100.00;100407.53;5052735;28;20048;-71
2022/04/05 08:15:23;;;;;;;6.22;2.17;;;;;;;6.18;100.00;100401.44;5052938;28;20025;-71
2022/04/05 08:17:50;;;;;;;6.03;1.70;;;;;;;6.21;100.00;100397.84;5016789;28;20039;-70
2022/04/05 08:20:16;;;;;;;5.45;1.85;;;;;;;6.21;100.00;100400.50;5034117;28;20111;-71
2022/04/05 08:22:42;;;;;;;6.55;2.20;;;;;;;6.27;100.00;100394.16;5034271;28;20056;-71
2022/04/05 08:25:09;;;;;;;9.70;1.77;;;;;;;6.34;100.00;100393.91;5052837;28;20702;-71
2022/04/05 08:27:35;;;;;;;6.85;1.95;;;;;;;6.39;100.00;100394.56;5049961;28;20041;-71
2022/04/05 08:30:01;;;;;;;6.13;2.13;;;;;;;6.46;100.00;100392.59;5052421;28;20021;-71
2022/04/05 08:32:29;;;;;;;7.47;2.55;;;;;;;6.50;100.00;100388.09;5049721;28;20021;-71
2022/04/05 08:34:55;;;;;;;5.22;2.45;;;;;;;6.56;100.00;100393.13;5034640;28;20021;-70
2022/04/05 08:37:22;;;;;;;7.30;2.70;;;;;;;6.58;100.00;100388.66;5050846;28;20043;-70
2022/04/05 08:39:48;;;;;;;6.57;3.55;;;;;;;6.58;100.00;100401.81;5033853;28;20399;-70
2022/04/05 08:42:14;;;;;;;4.93;2.88;;;;;;;6.60;100.00;100405.25;5032424;28;20036;-70
2022/04/05 08:44:42;;;;;;;7.28;2.65;;;;;;;6.62;100.00;100403.44;5051553;28;20097;-70
2022/04/05 08:47:10;;;;;;;8.50;3.30;;;;;;;6.60;100.00;100399.97;5033664;28;20120;-70
2022/04/05 08:49:37;;;;;;;6.65;2.95;;;;;;;6.62;100.00;100402.56;5021018;28;20437;-71
2022/04/05 08:52:03;;;;;;;6.25;3.00;;;;;;;6.63;100.00;100402.50;5050639;28;20133;-71
2022/04/05 08:54:28;;;;;;;7.18;2.90;;;;;;;6.65;100.00;100398.03;5018464;28;20055;-71
2022/04/05 08:56:54;;;;;;;7.68;3.33;;;;;;;6.70;100.00;100400.50;5032232;28;20035;-71
2022/04/05 08:59:19;;;;;;;7.57;3.25;;;;;;;6.74;100.00;100406.50;5033195;28;21936;-71
2022/04/05 09:01:45;;;;;;;4.18;2.90;;;;;;;6.78;100.00;100403.75;5050284;28;20144;-71
2022/04/05 09:04:11;;;;;;;4.97;2.58;;;;;;;6.77;100.00;100395.91;5032764;28;20032;-71
2022/04/05 09:06:37;;;;;;;3.58;2.20;;;;;;;6.76;100.00;100400.28;5050270;28;20037;-70
2022/04/05 09:09:19;;;;;;;3.80;2.30;;;;;;;6.79;100.00;100404.56;5049954;28;20124;-71
2022/04/05 09:11:49;;;;;;;4.47;2.05;;;;;;;6.80;100.00;100406.28;5017441;28;20029;-71
2022/04/05 09:14:25;;;;;;;4.78;2.20;;;;;;;6.82;100.00;100396.59;5050070;28;20064;-72
2022/04/05 09:17:12;;;;;;;5.80;2.38;;;;;;;6.89;100.00;100405.97;5016777;28;20082;-71
2022/04/05 09:19:42;;;;;;;6.85;2.40;;;;;;;6.95;100.00;100409.25;5015357;28;20163;-71
2022/04/05 09:22:08;;;;;;;4.13;2.30;;;;;;;6.95;100.00;100410.13;5029645;28;20033;-71
2022/04/05 09:24:35;;;;;;;6.95;2.60;;;;;;;6.98;100.00;100410.00;5049275;28;20495;-71
2022/04/05 09:27:01;;;;;;;3.38;2.70;;;;;;;7.03;100.00;100412.50;5049762;28;20647;-71
2022/04/05 09:29:43;;;;;;;6.15;3.00;;;;;;;7.05;100.00;100410.66;5049603;28;20124;-70
2022/04/05 09:32:10;;;;;;;4.82;2.70;;;;;;;7.07;100.00;100414.94;5049378;28;20021;-70
2022/04/05 09:34:49;;;;;;;3.80;2.60;;;;;;;7.13;100.00;100418.28;5049749;28;20048;-71
2022/04/05 09:37:15;;;;;;;5.63;3.00;;;;;;;7.17;100.00;100425.13;5049172;28;20064;-71
2022/04/05 09:39:41;;;;;;;4.70;2.75;;;;;;;7.20;100.00;100425.03;5050201;28;20202;-71
2022/04/05 09:42:08;;;;;;;3.83;2.35;;;;;;;7.24;100.00;100431.03;5031026;28;20028;-71
2022/04/05 09:44:39;;;;;;;4.13;2.83;;;;;;;7.22;100.00;100430.22;5049597;28;20037;-71
2022/04/05 09:47:11;;;;;;;3.47;2.47;;;;;;;7.24;100.00;100428.41;5049115;28;20040;-70
2022/04/05 09:49:41;;;;;;;3.28;2.40;;;;;;;7.27;100.00;100415.09;5031757;28;20116;-70
2022/04/05 09:52:25;;;;;;;3.78;2.75;;;;;;;7.33;100.00;100421.00;5028991;28;20429;-71
2022/04/05 09:54:51;;;;;;;2.20;2.00;;;;;;;7.35;100.00;100410.38;5029830;28;20052;-71
2022/04/05 09:57:30;;;;;;;2.97;2.20;;;;;;;7.33;100.00;100404.31;5033077;28;20029;-70
2022/04/05 10:00:13;;;;;;;2.33;2.00;;;;;;;7.44;100.00;100415.31;5031953;28;20155;-71
2022/04/05 10:02:58;;;;;;;2.75;2.28;;;;;;;7.52;100.00;100409.72;5031445;28;20042;-71
2022/04/05 10:05:24;;;;;;;3.42;2.25;;;;;;;7.66;100.00;100405.69;5012830;28;20033;-71
2022/04/05 10:07:50;;;;;;;2.60;1.85;;;;;;;7.78;100.00;100409.63;5048370;28;20033;-71
2022/04/05 10:10:15;;;;;;;2.75;2.45;;;;;;;7.85;100.00;100405.81;5050298;28;20031;-71
2022/04/05 10:12:41;;;;;;;2.40;2.20;;;;;;;7.86;100.00;100400.44;5050421;28;20029;-70
2022/04/05 10:15:07;;;;;;;4.28;2.35;;;;;;;7.93;100.00;100397.56;5049308;28;20567;-71
2022/04/05 10:17:33;;;;;;;2.28;2.08;;;;;;;7.96;100.00;100397.47;5031239;28;21445;-70
2022/04/05 10:20:00;;;;;;;4.65;2.58;;;;;;;7.97;100.00;100400.03;5032256;28;20079;-71
2022/04/05 10:22:26;;;;;;;3.90;2.60;;;;;;;8.05;100.00;100389.16;5032739;28;20032;-71
2022/04/05 10:24:54;;;;;;;3.10;2.60;;;;;;;8.21;100.00;100386.72;5049858;28;20070;-70
2022/04/05 10:27:20;;;;;;;3.85;2.75;;;;;;;8.37;100.00;100375.50;5048575;28;20473;-70
2022/04/05 10:29:54;;;;;;;3.42;2.83;;;;;;;8.49;100.00;100382.88;5050257;28;21768;-71
2022/04/05 10:32:38;;;;;;;4.05;3.00;;;;;;;8.52;100.00;100380.16;5020178;28;20037;-70
2022/04/05 10:35:06;;;;;;;4.07;3.20;;;;;;;8.64;100.00;100385.78;5012728;28;20497;-71
2022/04/05 10:37:35;;;;;;;4.90;3.20;;;;;;;8.71;100.00;100386.38;5050540;28;20123;-71
2022/04/05 10:40:00;;;;;;;3.58;3.25;;;;;;;8.73;100.00;100381.88;5028691;28;20024;-71
2022/04/05 10:42:38;;;;;;;4.40;2.97;;;;;;;8.83;100.00;100383.19;5031432;28;20232;-70
2022/04/05 10:45:21;;;;;;;5.43;3.70;;;;;;;8.89;100.00;100384.69;5017524;28;20040;-71
2022/04/05 10:47:59;;;;;;;5.70;3.83;;;;;;;8.92;100.00;100384.53;5029797;28;20033;-71
2022/04/05 10:50:25;;;;;;;4.85;3.70;;;;;;;8.93;100.00;100383.63;5044435;28;20048;-70
2022/04/05 10:53:11;;;;;;;4.50;4.00;;;;;;;8.97;100.00;100379.91;5045077;28;20097;-71
2022/04/05 10:56:06;;;;;;;4.28;3.60;;;;;;;8.95;100.00;100372.06;5016318;28;20068;-71
2022/04/05 10:58:37;;;;;;;4.72;4.22;;;;;;;9.06;100.00;100363.63;5050333;28;20029;-71
2022/04/05 11:01:13;;;;;;;4.55;4.10;;;;;;;9.19;100.00;100365.69;5049420;28;20032;-70
2022/04/05 11:03:39;;;;;;;5.03;4.30;;;;;;;9.27;100.00;100366.22;5049539;28;20547;-71
2022/04/05 11:06:04;;;;;;;5.85;4.68;;;;;;;9.32;100.00;100372.13;5036232;28;20081;-70
2022/04/05 11:08:31;;;;;;;6.50;4.47;;;;;;;9.32;100.00;100369.47;5053110;28;20159;-71
2022/04/05 11:11:00;;;;;;;6.13;4.57;;;;;;;9.37;100.00;100361.31;5035798;28;20051;-71
2022/04/05 11:13:35;;;;;;;6.85;4.85;;;;;;;9.34;100.00;100367.63;5051607;28;20083;-71
2022/04/05 11:16:02;;;;;;;7.97;5.50;;;;;;;9.34;100.00;100357.06;5022246;28;20120;-71
2022/04/05 11:18:30;;;;;;;6.20;5.22;;;;;;;9.36;100.00;100365.75;5052766;28;20092;-71
2022/04/05 11:20:57;;;;;;;6.72;5.13;;;;;;;9.37;100.00;100356.91;5053106;28;20033;-71